Terminal Aerodrome Forecast
Issued by NWS Atlanta, GA

Current Version | Previous Version | Text Only | Print | Product List | Glossary On
Versions: 1 2 3 4 5 6 7 8 9 10 11 12 13 14 15 16 17
000
FTUS42 KFFC 270546
TAFMCN
TAF
KMCN 270546Z 2706/2806 00000KT P6SM SKC
     FM271000 12005KT P6SM SCT120
     FM271800 15007KT P6SM BKN100
     FM272100 14005KT P6SM VCSH SCT050 BKN100 PROB30 2723/2804 5SM
      SHRA BKN045
     FM280400 11003KT P6SM BKN040=

USA.gov is the U.S. government's official web portal to all federal, state and local government web resources and services.